KHPN/HPN METAR and TAF weather

Enter ICAO airport designator
Station Type Date Time Source
KHPN METAR 2021/05/12 01:56 UTC NOAA

KHPN 120156Z 31013KT 10SM BKN100 11/M02 A3005 RMK AO2 SLP176 T01111022


Station Type Date Time Source
KHPN Decoded METAR 2021/05/12 01:56 UTC NOAA

WHITE PLAINS WESTCHESTER, NY, United States (KHPN) 41-04N 073-42W 121M
May 11, 2021 - 09:56 PM EDT / 2021.05.12 0156 UTC
Wind: from the NW (310 degrees) at 15 MPH (13 KT):0
Visibility: 10 mile(s):0
Sky conditions: mostly cloudy
Temperature: 52.0 F (11.1 C)
Dew Point: 28.0 F (-2.2 C)
Relative Humidity: 39%
Pressure (altimeter): 30.05 in. Hg (1017 hPa)
ob: KHPN 120156Z 31013KT 10SM BKN100 11/M02 A3005 RMK AO2 SLP176 T01111022
cycle: 2

Station Type Date Time Source
KHPN TAF 2021/05/12 03:42 UTC NOAA

TAF
AMD KHPN 120241Z 1203/1224 31010KT P6SM SCT050 SCT100 BKN250
FM121000 30012G19KT P6SM SCT050
FM122200 32011KT P6SM SCT250
AMD NOT SKED

Example: see airport list